Airfield :
LOGIN :

Register | Disclaimer

   EN    FR    IT 

 










Legend :    VFR   Marginal VFR   IFR   Intensive IFR   Very Intensive IFR
Visi :
Ceiling :
>= 8 km
>= 3000ft
5 to 8 km
1000 to 3000 ft
1500m to 5 km
500 to 1000 ft
800 to 1500m
200 to 500 ft
< 800m
< 200 ft
Symbols :   Thunderstorms  Fog  Heavy snow  Heavy precipitations  Wind > 20 kt
SIGMETs :     Misc.  Thunderstorms  Icing  Turbulence  Mountain Waves  Volcanic Ashes







- Airport Elevation : 1017 ft
- Download approach charts


LFSL - Brive Souillac

CURRENT METAR :
  • 190300Z AUTO 17006KT 140V200 9999 FEW003 OVC047 08/07 Q1018 TEMPO 4000 BR

EXPIRED METARs :
  • 190230Z AUTO 16003KT 130V200 9999 BKN046/// OVC052/// ///TCU 08/07 Q1018
  • 190200Z AUTO 18007KT 150V210 9000 -RA BKN046/// BKN054/// BKN064/// ///TCU 08/07 Q1018
  • 190130Z AUTO 21004KT 170V280 9999 -RA FEW019 SCT043 OVC050 08/07 Q1018
  • 190100Z AUTO 20004KT 160V230 9999 -RA FEW023 BKN035 OVC041 08/07 Q1018
  • 190030Z AUTO 22007KT 180V250 7000 -DZ OVC025 09/07 Q1018

TAF TAF LFSL
Valid from the 19 at 03:00 until the 19 at 12:00 UTC


190200Z 1903/1912 19005KT 9999 BKN040
PROB30
TEMPO 1903/1904 6000 -RA
PROB30
TEMPO 1904/1909 4000 BR
BECMG 1909/1911 SCT015 BKN035
PROB30
TEMPO 1910/1912 -SHRA SCT030TCU BKN070
No reported NOTAMs for that airfield.



MET'MAP, your aeronautical weather chart ! - Copyright ORBIFLY December 2007 - Disclaimer

ORBIFLY MET'MAP TEAM :

Programming & Development : Alexandra Zaïnal
Concept & Development : Baudouin d'Aumeries
Co-Development & Prog : Marc-Olivier Méhu
Technical & hardware support : Manuel Goepfert

Contact : metmap@orbifly.com




SOURCES & CREDITS :

   NOAA